Time;durP1;ratioP1;P1;durP2;ratioP2;P2;SDS_P1;SDS_P2;PMS_P1;PMS_P2;Temp;Humidity;BMP_temperature;BMP_pressure;BME280_temperature;BME280_humidity;BME280_pressure;Samples;Min_cycle;Max_cycle;Signal;HPM_P1;HPM_P2
2022/01/03 00:00:54;;;;;;;;;4.00;3.00;;;;;;;;1230187;29;11580614;-82
2022/01/03 00:03:19;;;;;;;;;3.40;2.20;;;;;;;;1579081;29;10219529;-81
2022/01/03 00:05:46;;;;;;;;;4.00;3.00;;;;;;;;1669525;29;6933156;-82
2022/01/03 00:08:11;;;;;;;;;2.00;2.00;;;;;;;;2101810;29;4079300;-79
2022/01/03 00:10:36;;;;;;;;;3.00;2.00;;;;;;;;2751650;29;3310108;-79
2022/01/03 00:13:03;;;;;;;;;3.00;2.50;;;;;;;;3293416;29;2591996;-77
2022/01/03 00:15:29;;;;;;;;;8.00;3.00;;;;;;;;3449304;29;2158746;-78
2022/01/03 00:17:54;;;;;;;;;5.33;4.00;;;;;;;;3691428;29;2475255;-78
2022/01/03 00:20:21;;;;;;;;;2.40;2.00;;;;;;;;3926224;29;1836398;-79
2022/01/03 00:22:52;;;;;;;;;6.25;6.25;;;;;;;;4149900;29;1239928;-83
2022/01/03 00:25:19;;;;;;;;;9.00;3.25;;;;;;;;4247762;29;1001902;-82
2022/01/03 00:28:01;;;;;;;;;3.00;2.00;;;;;;;;4337246;29;963100;-78
2022/01/03 08:39:32;;;;;;;;;;;;;;;;;;2;261386084;261386084;-73
2022/01/03 08:48:33;;;;;;;;;;;;;;;;;;2;261077209;261077209;-73
2022/01/03 08:56:48;;;;;;;;;13.50;2.00;;;;;;;;2;261081262;261081262;-75
2022/01/03 09:05:54;;;;;;;;;1.00;1.00;;;;;;;;2;261078755;261078755;-73
2022/01/03 09:14:09;;;;;;;;;12.50;9.00;;;;;;;;2;261079779;261079779;-74
2022/01/03 09:23:22;;;;;;;;;0.00;0.00;;;;;;;;2;261081152;261081152;-74
2022/01/03 09:31:38;;;;;;;;;0.50;0.50;;;;;;;;2;261082049;261082049;-73
2022/01/03 09:40:40;;;;;;;;;15.50;0.50;;;;;;;;2;261079634;261079634;-74
2022/01/03 09:48:55;;;;;;;;;3.50;3.50;;;;;;;;2;261077055;261077055;-73
2022/01/03 09:57:56;;;;;;;;;2.50;2.50;;;;;;;;2;261079610;261079610;-72
2022/01/03 10:06:12;;;;;;;;;4.50;4.50;;;;;;;;2;261075965;261075965;-73
2022/01/03 10:15:13;;;;;;;;;6.50;6.50;;;;;;;;2;261079404;261079404;-73
2022/01/03 10:23:30;;;;;;;;;1.00;1.00;;;;;;;;2;261080553;261080553;-74
2022/01/03 10:32:31;;;;;;;;;1.50;1.50;;;;;;;;2;261079312;261079312;-72
2022/01/03 10:40:46;;;;;;;;;5.00;2.00;;;;;;;;2;261080114;261080114;-74
2022/01/03 10:49:47;;;;;;;;;3.50;0.50;;;;;;;;2;261078442;261078442;-79
2022/01/03 10:58:03;;;;;;;;;2.50;2.50;;;;;;;;2;261076048;261076048;-78
2022/01/03 11:16:00;;;;;;;;;4.00;4.00;;;;;;;;2;261078634;261078634;-75
2022/01/03 11:24:59;;;;;;;;;5.50;2.50;;;;;;;;2;259620157;259620157;-74
2022/01/03 11:33:15;;;;;;;;;1.00;1.00;;;;;;;;2;261083029;261083029;-75
2022/01/03 11:42:16;;;;;;;;;9.50;9.50;;;;;;;;2;261076751;261076751;-75
2022/01/03 11:50:36;;;;;;;;;9.00;9.00;;;;;;;;2;261079057;261079057;-74
2022/01/03 12:08:19;;;;;;;;;1.00;1.00;;;;;;;;2;261076361;261076361;-73
2022/01/03 12:17:20;;;;;;;;;9.50;1.00;;;;;;;;2;261078452;261078452;-73
2022/01/03 12:25:36;;;;;;;;;5.50;0.50;;;;;;;;2;261077576;261077576;-75
2022/01/03 12:34:39;;;;;;;;;1.50;1.50;;;;;;;;2;261078445;261078445;-74
2022/01/03 12:42:55;;;;;;;;;1.50;1.50;;;;;;;;2;261077991;261077991;-74
2022/01/03 12:52:12;;;;;;;;;0.50;0.50;;;;;;;;2;261081029;261081029;-74
2022/01/03 13:03:52;;;;;;;;;5.00;5.00;;;;;;;;2;261078111;261078111;-74
2022/01/03 18:09:28;;;;;;;;;1.00;1.00;;;;;;;;2;261079126;261079126;-79
2022/01/03 18:18:29;;;;;;;;;11.50;3.00;;;;;;;;2;261080409;261080409;-78
2022/01/03 18:26:44;;;;;;;;;5.50;3.00;;;;;;;;2;261081560;261081560;-77
2022/01/03 18:35:45;;;;;;;;;1.00;1.00;;;;;;;;2;261079051;261079051;-79
2022/01/03 18:44:01;;;;;;;;;1.50;1.50;;;;;;;;2;261080134;261080134;-78
2022/01/03 18:53:01;;;;;;;;;11.00;11.00;;;;;;;;2;261080912;261080912;-77
2022/01/03 19:01:17;;;;;;;;;0.50;0.50;;;;;;;;2;261080435;261080435;-78
2022/01/03 19:10:18;;;;;;;;;2.50;2.50;;;;;;;;2;261078672;261078672;-79
2022/01/03 19:18:33;;;;;;;;;1.00;1.00;;;;;;;;2;261078472;261078472;-77
2022/01/03 19:27:33;;;;;;;;;14.00;2.00;;;;;;;;2;261078675;261078675;-77
2022/01/03 19:45:08;;;;;;;;;8.00;8.00;;;;;;;;2;261078539;261078539;-80
2022/01/03 19:53:23;;;;;;;;;1.50;1.50;;;;;;;;2;261077012;261077012;-77
2022/01/03 20:02:24;;;;;;;;;4.50;4.50;;;;;;;;2;261079643;261079643;-77
2022/01/03 20:10:40;;;;;;;;;6.00;6.00;;;;;;;;2;261077633;261077633;-77
2022/01/03 20:19:42;;;;;;;;;11.00;2.50;;;;;;;;2;261078979;261078979;-77
2022/01/03 20:27:58;;;;;;;;;1.00;1.00;;;;;;;;2;261076712;261076712;-77
2022/01/03 20:36:59;;;;;;;;;14.50;6.50;;;;;;;;2;261076527;261076527;-78
2022/01/03 20:45:14;;;;;;;;;2.00;2.00;;;;;;;;2;261078080;261078080;-79
2022/01/03 20:54:15;;;;;;;;;7.00;7.00;;;;;;;;2;261078360;261078360;-77
2022/01/03 21:02:30;;;;;;;;;3.00;3.00;;;;;;;;2;261079499;261079499;-77
2022/01/03 21:11:30;;;;;;;;;5.50;5.50;;;;;;;;2;261078362;261078362;-76
2022/01/03 21:19:46;;;;;;;;;5.50;3.00;;;;;;;;2;261077656;261077656;-77
2022/01/03 21:28:46;;;;;;;;;1.00;1.00;;;;;;;;2;261075380;261075380;-76
2022/01/03 21:37:02;;;;;;;;;4.50;1.00;;;;;;;;2;261078420;261078420;-75
2022/01/03 21:46:02;;;;;;;;;4.50;4.50;;;;;;;;2;261076426;261076426;-76
2022/01/03 21:54:18;;;;;;;;;7.00;7.00;;;;;;;;2;261079192;261079192;-78
2022/01/03 22:03:18;;;;;;;;;5.50;4.00;;;;;;;;2;261077472;261077472;-77
2022/01/03 22:11:34;;;;;;;;;11.00;5.50;;;;;;;;2;261077457;261077457;-74
2022/01/03 22:20:34;;;;;;;;;4.00;4.00;;;;;;;;2;261077646;261077646;-76
2022/01/03 22:28:50;;;;;;;;;1.50;1.50;;;;;;;;2;261077604;261077604;-75
2022/01/03 22:37:50;;;;;;;;;1.00;1.00;;;;;;;;2;261077281;261077281;-76
2022/01/03 22:46:05;;;;;;;;;3.50;3.50;;;;;;;;2;261074782;261074782;-76
2022/01/03 22:55:06;;;;;;;;;3.00;3.00;;;;;;;;2;261076605;261076605;-78
2022/01/03 23:03:22;;;;;;;;;0.00;0.00;;;;;;;;2;261079491;261079491;-79
2022/01/03 23:12:22;;;;;;;;;2.50;2.50;;;;;;;;2;261077471;261077471;-77
2022/01/03 23:20:37;;;;;;;;;0.50;0.50;;;;;;;;2;261076433;261076433;-78
2022/01/03 23:29:41;;;;;;;;;0.00;0.00;;;;;;;;2;261080453;261080453;-77
2022/01/03 23:37:56;;;;;;;;;4.50;0.50;;;;;;;;2;261078632;261078632;-77
2022/01/03 23:46:57;;;;;;;;;0.00;0.00;;;;;;;;2;261077029;261077029;-77
2022/01/03 23:55:12;;;;;;;;;1.00;1.00;;;;;;;;2;261079933;261079933;-77
